sensor_id;sensor_type;location;lat;lon;timestamp;P1;durP1;ratioP1;P2;durP2;ratioP2
6809;SDS011;3443;48.812;9.112;2023-04-03T00:00:46;1.90;;;1.80;;
6809;SDS011;3443;48.812;9.112;2023-04-03T00:03:14;1.87;;;1.77;;
6809;SDS011;3443;48.812;9.112;2023-04-03T00:05:40;1.80;;;1.70;;
6809;SDS011;3443;48.812;9.112;2023-04-03T00:08:06;1.63;;;1.60;;
6809;SDS011;3443;48.812;9.112;2023-04-03T00:10:34;1.77;;;1.77;;
6809;SDS011;3443;48.812;9.112;2023-04-03T00:13:00;1.97;;;1.90;;
6809;SDS011;3443;48.812;9.112;2023-04-03T00:15:26;1.47;;;1.47;;
6809;SDS011;3443;48.812;9.112;2023-04-03T00:17:52;1.80;;;1.70;;
6809;SDS011;3443;48.812;9.112;2023-04-03T00:20:17;1.80;;;1.80;;
6809;SDS011;3443;48.812;9.112;2023-04-03T00:22:43;1.70;;;1.60;;
6809;SDS011;3443;48.812;9.112;2023-04-03T00:25:09;2.53;;;1.90;;
6809;SDS011;3443;48.812;9.112;2023-04-03T00:27:36;1.60;;;1.50;;
6809;SDS011;3443;48.812;9.112;2023-04-03T00:30:03;2.27;;;2.10;;
6809;SDS011;3443;48.812;9.112;2023-04-03T00:32:29;2.77;;;1.90;;
6809;SDS011;3443;48.812;9.112;2023-04-03T00:34:55;2.47;;;1.83;;
6809;SDS011;3443;48.812;9.112;2023-04-03T00:37:20;2.37;;;1.83;;
6809;SDS011;3443;48.812;9.112;2023-04-03T00:39:46;2.47;;;1.80;;
6809;SDS011;3443;48.812;9.112;2023-04-03T00:42:11;1.93;;;1.80;;
6809;SDS011;3443;48.812;9.112;2023-04-03T00:47:03;2.33;;;2.13;;
6809;SDS011;3443;48.812;9.112;2023-04-03T00:49:32;3.30;;;1.90;;
6809;SDS011;3443;48.812;9.112;2023-04-03T00:51:57;2.20;;;2.20;;
6809;SDS011;3443;48.812;9.112;2023-04-03T00:54:24;2.30;;;2.20;;
6809;SDS011;3443;48.812;9.112;2023-04-03T00:56:51;2.10;;;1.90;;
6809;SDS011;3443;48.812;9.112;2023-04-03T00:59:21;2.27;;;1.87;;
6809;SDS011;3443;48.812;9.112;2023-04-03T01:01:52;2.20;;;2.00;;
6809;SDS011;3443;48.812;9.112;2023-04-03T01:04:30;2.60;;;2.30;;
6809;SDS011;3443;48.812;9.112;2023-04-03T01:07:02;1.97;;;1.90;;
6809;SDS011;3443;48.812;9.112;2023-04-03T01:09:30;2.07;;;1.80;;
6809;SDS011;3443;48.812;9.112;2023-04-03T01:14:44;3.13;;;1.90;;
6809;SDS011;3443;48.812;9.112;2023-04-03T01:20:21;2.20;;;2.00;;
6809;SDS011;3443;48.812;9.112;2023-04-03T01:25:56;1.80;;;1.70;;
6809;SDS011;3443;48.812;9.112;2023-04-03T01:28:24;2.20;;;2.00;;
6809;SDS011;3443;48.812;9.112;2023-04-03T01:31:02;2.03;;;1.90;;
6809;SDS011;3443;48.812;9.112;2023-04-03T01:33:50;3.37;;;2.20;;
6809;SDS011;3443;48.812;9.112;2023-04-03T01:36:20;2.17;;;1.93;;
6809;SDS011;3443;48.812;9.112;2023-04-03T01:38:53;1.90;;;1.80;;
6809;SDS011;3443;48.812;9.112;2023-04-03T01:41:19;1.80;;;1.80;;
6809;SDS011;3443;48.812;9.112;2023-04-03T01:43:46;1.63;;;1.63;;
6809;SDS011;3443;48.812;9.112;2023-04-03T01:46:19;2.20;;;2.10;;
6809;SDS011;3443;48.812;9.112;2023-04-03T01:48:45;2.53;;;2.43;;
6809;SDS011;3443;48.812;9.112;2023-04-03T01:51:11;1.70;;;1.60;;
6809;SDS011;3443;48.812;9.112;2023-04-03T01:53:37;2.27;;;2.10;;
6809;SDS011;3443;48.812;9.112;2023-04-03T01:56:02;3.33;;;2.10;;
6809;SDS011;3443;48.812;9.112;2023-04-03T01:58:28;2.17;;;2.03;;
6809;SDS011;3443;48.812;9.112;2023-04-03T02:00:54;2.07;;;1.97;;
6809;SDS011;3443;48.812;9.112;2023-04-03T02:03:19;2.37;;;1.70;;
6809;SDS011;3443;48.812;9.112;2023-04-03T02:05:45;2.47;;;2.10;;
6809;SDS011;3443;48.812;9.112;2023-04-03T02:08:11;2.27;;;2.13;;
6809;SDS011;3443;48.812;9.112;2023-04-03T02:10:36;1.93;;;1.83;;
6809;SDS011;3443;48.812;9.112;2023-04-03T02:13:02;2.17;;;2.07;;
6809;SDS011;3443;48.812;9.112;2023-04-03T02:15:28;2.30;;;2.07;;
6809;SDS011;3443;48.812;9.112;2023-04-03T02:17:53;2.13;;;2.03;;
6809;SDS011;3443;48.812;9.112;2023-04-03T02:20:19;2.03;;;1.93;;
6809;SDS011;3443;48.812;9.112;2023-04-03T02:22:45;1.90;;;1.80;;
6809;SDS011;3443;48.812;9.112;2023-04-03T02:25:11;1.83;;;1.73;;
6809;SDS011;3443;48.812;9.112;2023-04-03T02:27:37;2.10;;;2.00;;
6809;SDS011;3443;48.812;9.112;2023-04-03T02:30:03;2.50;;;2.30;;
6809;SDS011;3443;48.812;9.112;2023-04-03T02:32:30;1.63;;;1.63;;
6809;SDS011;3443;48.812;9.112;2023-04-03T02:34:56;2.10;;;1.90;;
6809;SDS011;3443;48.812;9.112;2023-04-03T02:37:22;2.13;;;2.03;;
6809;SDS011;3443;48.812;9.112;2023-04-03T02:39:47;2.30;;;2.20;;
6809;SDS011;3443;48.812;9.112;2023-04-03T02:42:13;2.47;;;2.10;;
6809;SDS011;3443;48.812;9.112;2023-04-03T02:44:38;1.83;;;1.70;;
6809;SDS011;3443;48.812;9.112;2023-04-03T02:47:04;2.10;;;2.00;;
6809;SDS011;3443;48.812;9.112;2023-04-03T02:49:30;2.30;;;2.20;;
6809;SDS011;3443;48.812;9.112;2023-04-03T02:51:56;2.00;;;1.90;;
6809;SDS011;3443;48.812;9.112;2023-04-03T02:54:21;2.20;;;2.00;;
6809;SDS011;3443;48.812;9.112;2023-04-03T02:56:48;2.40;;;2.30;;
6809;SDS011;3443;48.812;9.112;2023-04-03T02:59:15;1.80;;;1.80;;
6809;SDS011;3443;48.812;9.112;2023-04-03T03:01:41;2.20;;;2.00;;
6809;SDS011;3443;48.812;9.112;2023-04-03T03:04:06;2.57;;;1.83;;
6809;SDS011;3443;48.812;9.112;2023-04-03T03:06:32;2.37;;;2.00;;
6809;SDS011;3443;48.812;9.112;2023-04-03T03:08:57;2.00;;;1.90;;
6809;SDS011;3443;48.812;9.112;2023-04-03T03:11:23;2.77;;;2.00;;
6809;SDS011;3443;48.812;9.112;2023-04-03T03:13:50;1.83;;;1.70;;
6809;SDS011;3443;48.812;9.112;2023-04-03T03:16:15;1.70;;;1.60;;
6809;SDS011;3443;48.812;9.112;2023-04-03T03:18:41;1.73;;;1.70;;
6809;SDS011;3443;48.812;9.112;2023-04-03T03:21:06;1.63;;;1.60;;
6809;SDS011;3443;48.812;9.112;2023-04-03T03:23:34;1.70;;;1.67;;
6809;SDS011;3443;48.812;9.112;2023-04-03T03:26:01;1.80;;;1.70;;
6809;SDS011;3443;48.812;9.112;2023-04-03T03:28:29;1.77;;;1.67;;
6809;SDS011;3443;48.812;9.112;2023-04-03T03:30:55;2.23;;;1.60;;
6809;SDS011;3443;48.812;9.112;2023-04-03T03:33:21;1.77;;;1.67;;
6809;SDS011;3443;48.812;9.112;2023-04-03T03:35:47;1.80;;;1.70;;
6809;SDS011;3443;48.812;9.112;2023-04-03T03:38:12;1.50;;;1.50;;
6809;SDS011;3443;48.812;9.112;2023-04-03T03:40:38;1.50;;;1.50;;
6809;SDS011;3443;48.812;9.112;2023-04-03T03:43:03;2.27;;;1.40;;
6809;SDS011;3443;48.812;9.112;2023-04-03T03:45:29;1.47;;;1.37;;
6809;SDS011;3443;48.812;9.112;2023-04-03T03:47:56;2.27;;;1.57;;
6809;SDS011;3443;48.812;9.112;2023-04-03T03:50:21;1.57;;;1.50;;
6809;SDS011;3443;48.812;9.112;2023-04-03T03:52:47;1.90;;;1.47;;
6809;SDS011;3443;48.812;9.112;2023-04-03T03:55:12;1.97;;;1.70;;
6809;SDS011;3443;48.812;9.112;2023-04-03T03:57:38;1.40;;;1.40;;
6809;SDS011;3443;48.812;9.112;2023-04-03T04:00:04;2.10;;;2.00;;
6809;SDS011;3443;48.812;9.112;2023-04-03T04:02:30;2.77;;;2.00;;
6809;SDS011;3443;48.812;9.112;2023-04-03T04:04:56;2.10;;;1.63;;
6809;SDS011;3443;48.812;9.112;2023-04-03T04:07:22;2.70;;;1.70;;
6809;SDS011;3443;48.812;9.112;2023-04-03T04:09:48;1.80;;;1.70;;
6809;SDS011;3443;48.812;9.112;2023-04-03T04:12:13;1.37;;;1.27;;
6809;SDS011;3443;48.812;9.112;2023-04-03T04:14:39;1.40;;;1.30;;
6809;SDS011;3443;48.812;9.112;2023-04-03T04:17:05;2.03;;;1.77;;
6809;SDS011;3443;48.812;9.112;2023-04-03T04:19:30;2.57;;;2.37;;
6809;SDS011;3443;48.812;9.112;2023-04-03T04:21:56;1.50;;;1.40;;
6809;SDS011;3443;48.812;9.112;2023-04-03T04:24:21;1.80;;;1.70;;
6809;SDS011;3443;48.812;9.112;2023-04-03T04:26:50;1.70;;;1.60;;
6809;SDS011;3443;48.812;9.112;2023-04-03T04:29:15;1.53;;;1.50;;
6809;SDS011;3443;48.812;9.112;2023-04-03T04:31:41;2.57;;;1.47;;
6809;SDS011;3443;48.812;9.112;2023-04-03T04:34:06;1.57;;;1.47;;
6809;SDS011;3443;48.812;9.112;2023-04-03T04:36:32;1.43;;;1.43;;
6809;SDS011;3443;48.812;9.112;2023-04-03T04:38:57;1.73;;;1.60;;
6809;SDS011;3443;48.812;9.112;2023-04-03T04:41:23;1.67;;;1.67;;
6809;SDS011;3443;48.812;9.112;2023-04-03T04:43:49;1.60;;;1.60;;
6809;SDS011;3443;48.812;9.112;2023-04-03T04:46:16;1.63;;;1.53;;
6809;SDS011;3443;48.812;9.112;2023-04-03T04:48:42;3.43;;;1.90;;
6809;SDS011;3443;48.812;9.112;2023-04-03T04:51:08;1.70;;;1.60;;
6809;SDS011;3443;48.812;9.112;2023-04-03T04:53:33;1.67;;;1.57;;
6809;SDS011;3443;48.812;9.112;2023-04-03T04:55:59;15.00;;;7.20;;
6809;SDS011;3443;48.812;9.112;2023-04-03T04:58:25;6.07;;;3.50;;
6809;SDS011;3443;48.812;9.112;2023-04-03T05:00:57;2.93;;;2.57;;
6809;SDS011;3443;48.812;9.112;2023-04-03T05:03:24;10.73;;;4.73;;
6809;SDS011;3443;48.812;9.112;2023-04-03T05:05:50;100.53;;;27.30;;
6809;SDS011;3443;48.812;9.112;2023-04-03T05:08:15;7.73;;;4.37;;
6809;SDS011;3443;48.812;9.112;2023-04-03T05:10:41;96.57;;;34.87;;
6809;SDS011;3443;48.812;9.112;2023-04-03T05:13:07;174.50;;;44.70;;
6809;SDS011;3443;48.812;9.112;2023-04-03T05:15:33;124.53;;;36.30;;
6809;SDS011;3443;48.812;9.112;2023-04-03T05:17:58;24.77;;;9.73;;
6809;SDS011;3443;48.812;9.112;2023-04-03T05:20:24;11.40;;;5.37;;
6809;SDS011;3443;48.812;9.112;2023-04-03T05:22:50;5.23;;;3.37;;
6809;SDS011;3443;48.812;9.112;2023-04-03T05:25:15;2.73;;;2.53;;
6809;SDS011;3443;48.812;9.112;2023-04-03T05:27:41;2.30;;;1.87;;
6809;SDS011;3443;48.812;9.112;2023-04-03T05:30:07;2.30;;;2.20;;
6809;SDS011;3443;48.812;9.112;2023-04-03T05:32:33;2.00;;;1.90;;
6809;SDS011;3443;48.812;9.112;2023-04-03T05:34:58;2.17;;;1.97;;
6809;SDS011;3443;48.812;9.112;2023-04-03T05:37:24;1.73;;;1.73;;
6809;SDS011;3443;48.812;9.112;2023-04-03T05:39:49;1.73;;;1.67;;
6809;SDS011;3443;48.812;9.112;2023-04-03T05:42:15;2.30;;;2.10;;
6809;SDS011;3443;48.812;9.112;2023-04-03T05:44:41;1.97;;;1.87;;
6809;SDS011;3443;48.812;9.112;2023-04-03T05:47:07;1.63;;;1.53;;
6809;SDS011;3443;48.812;9.112;2023-04-03T05:49:33;1.90;;;1.70;;
6809;SDS011;3443;48.812;9.112;2023-04-03T05:51:59;1.63;;;1.53;;
6809;SDS011;3443;48.812;9.112;2023-04-03T05:54:29;1.80;;;1.70;;
6809;SDS011;3443;48.812;9.112;2023-04-03T05:56:55;1.70;;;1.60;;
6809;SDS011;3443;48.812;9.112;2023-04-03T05:59:20;1.90;;;1.80;;
6809;SDS011;3443;48.812;9.112;2023-04-03T06:01:47;2.10;;;1.90;;
6809;SDS011;3443;48.812;9.112;2023-04-03T06:04:13;1.67;;;1.60;;
6809;SDS011;3443;48.812;9.112;2023-04-03T06:06:43;4.10;;;1.83;;
6809;SDS011;3443;48.812;9.112;2023-04-03T06:09:16;1.73;;;1.63;;
6809;SDS011;3443;48.812;9.112;2023-04-03T06:11:44;1.73;;;1.70;;
6809;SDS011;3443;48.812;9.112;2023-04-03T06:14:10;2.63;;;1.60;;
6809;SDS011;3443;48.812;9.112;2023-04-03T06:16:36;1.57;;;1.47;;
6809;SDS011;3443;48.812;9.112;2023-04-03T06:19:03;1.80;;;1.70;;
6809;SDS011;3443;48.812;9.112;2023-04-03T06:21:29;2.17;;;1.53;;
6809;SDS011;3443;48.812;9.112;2023-04-03T06:23:55;1.63;;;1.63;;
6809;SDS011;3443;48.812;9.112;2023-04-03T06:26:20;1.87;;;1.77;;
6809;SDS011;3443;48.812;9.112;2023-04-03T06:28:47;1.80;;;1.70;;
6809;SDS011;3443;48.812;9.112;2023-04-03T06:31:12;1.80;;;1.70;;
6809;SDS011;3443;48.812;9.112;2023-04-03T06:33:38;2.17;;;1.80;;
6809;SDS011;3443;48.812;9.112;2023-04-03T06:36:04;1.93;;;1.83;;
6809;SDS011;3443;48.812;9.112;2023-04-03T06:38:31;1.60;;;1.60;;
6809;SDS011;3443;48.812;9.112;2023-04-03T06:40:58;2.77;;;1.80;;
6809;SDS011;3443;48.812;9.112;2023-04-03T06:43:24;1.90;;;1.77;;
6809;SDS011;3443;48.812;9.112;2023-04-03T06:45:50;1.87;;;1.60;;
6809;SDS011;3443;48.812;9.112;2023-04-03T06:48:15;3.70;;;1.70;;
6809;SDS011;3443;48.812;9.112;2023-04-03T06:50:41;1.57;;;1.47;;
6809;SDS011;3443;48.812;9.112;2023-04-03T06:53:07;3.23;;;1.90;;
6809;SDS011;3443;48.812;9.112;2023-04-03T06:55:33;2.00;;;1.47;;
6809;SDS011;3443;48.812;9.112;2023-04-03T06:58:00;1.80;;;1.70;;
6809;SDS011;3443;48.812;9.112;2023-04-03T07:00:26;1.70;;;1.60;;
6809;SDS011;3443;48.812;9.112;2023-04-03T07:02:52;1.73;;;1.60;;
6809;SDS011;3443;48.812;9.112;2023-04-03T07:05:18;1.80;;;1.70;;
6809;SDS011;3443;48.812;9.112;2023-04-03T07:07:43;2.60;;;1.70;;
6809;SDS011;3443;48.812;9.112;2023-04-03T07:10:09;2.57;;;1.67;;
6809;SDS011;3443;48.812;9.112;2023-04-03T07:12:36;3.27;;;2.20;;
6809;SDS011;3443;48.812;9.112;2023-04-03T07:15:03;2.30;;;1.80;;
6809;SDS011;3443;48.812;9.112;2023-04-03T07:17:30;3.77;;;2.10;;
6809;SDS011;3443;48.812;9.112;2023-04-03T07:19:56;1.60;;;1.50;;
6809;SDS011;3443;48.812;9.112;2023-04-03T07:22:21;2.00;;;1.77;;
6809;SDS011;3443;48.812;9.112;2023-04-03T07:24:47;4.50;;;1.90;;
6809;SDS011;3443;48.812;9.112;2023-04-03T07:27:12;5.93;;;5.30;;
6809;SDS011;3443;48.812;9.112;2023-04-03T07:29:38;2.00;;;1.90;;
6809;SDS011;3443;48.812;9.112;2023-04-03T07:32:04;4.10;;;1.55;;
6809;SDS011;3443;48.812;9.112;2023-04-03T07:34:31;2.00;;;1.60;;
6809;SDS011;3443;48.812;9.112;2023-04-03T07:36:57;1.80;;;1.70;;
6809;SDS011;3443;48.812;9.112;2023-04-03T07:39:23;2.00;;;1.80;;
6809;SDS011;3443;48.812;9.112;2023-04-03T07:41:49;1.83;;;1.67;;
6809;SDS011;3443;48.812;9.112;2023-04-03T07:44:15;1.87;;;1.77;;
6809;SDS011;3443;48.812;9.112;2023-04-03T07:46:40;1.70;;;1.60;;
6809;SDS011;3443;48.812;9.112;2023-04-03T07:49:07;5.90;;;1.70;;
6809;SDS011;3443;48.812;9.112;2023-04-03T07:51:33;2.73;;;2.00;;
6809;SDS011;3443;48.812;9.112;2023-04-03T07:53:58;31.03;;;18.53;;
6809;SDS011;3443;48.812;9.112;2023-04-03T07:56:24;146.43;;;68.53;;
6809;SDS011;3443;48.812;9.112;2023-04-03T07:58:50;18.00;;;11.10;;
6809;SDS011;3443;48.812;9.112;2023-04-03T08:01:15;28.63;;;17.30;;
6809;SDS011;3443;48.812;9.112;2023-04-03T08:03:41;46.30;;;24.83;;
6809;SDS011;3443;48.812;9.112;2023-04-03T08:06:07;7.60;;;5.20;;
6809;SDS011;3443;48.812;9.112;2023-04-03T08:08:33;4.73;;;3.10;;
6809;SDS011;3443;48.812;9.112;2023-04-03T08:11:00;60.07;;;29.73;;
6809;SDS011;3443;48.812;9.112;2023-04-03T08:13:28;51.33;;;27.57;;
6809;SDS011;3443;48.812;9.112;2023-04-03T08:15:54;19.03;;;11.10;;
6809;SDS011;3443;48.812;9.112;2023-04-03T08:18:22;20.77;;;10.53;;
6809;SDS011;3443;48.812;9.112;2023-04-03T08:20:50;4.33;;;3.30;;
6809;SDS011;3443;48.812;9.112;2023-04-03T08:23:16;20.03;;;11.87;;
6809;SDS011;3443;48.812;9.112;2023-04-03T08:25:43;11.13;;;6.50;;
6809;SDS011;3443;48.812;9.112;2023-04-03T08:28:09;31.97;;;16.97;;
6809;SDS011;3443;48.812;9.112;2023-04-03T08:30:35;11.17;;;7.70;;
6809;SDS011;3443;48.812;9.112;2023-04-03T08:33:04;13.30;;;7.30;;
6809;SDS011;3443;48.812;9.112;2023-04-03T08:35:31;13.17;;;6.90;;
6809;SDS011;3443;48.812;9.112;2023-04-03T08:37:56;9.90;;;5.63;;
6809;SDS011;3443;48.812;9.112;2023-04-03T08:40:22;13.20;;;8.80;;
6809;SDS011;3443;48.812;9.112;2023-04-03T08:45:22;21.63;;;11.70;;
6809;SDS011;3443;48.812;9.112;2023-04-03T08:50:30;26.30;;;14.15;;
6809;SDS011;3443;48.812;9.112;2023-04-03T08:53:00;11.80;;;6.27;;
6809;SDS011;3443;48.812;9.112;2023-04-03T08:55:33;13.97;;;8.27;;
6809;SDS011;3443;48.812;9.112;2023-04-03T08:58:05;10.60;;;4.27;;
6809;SDS011;3443;48.812;9.112;2023-04-03T09:00:47;10.30;;;6.50;;
6809;SDS011;3443;48.812;9.112;2023-04-03T09:03:16;15.00;;;8.63;;
6809;SDS011;3443;48.812;9.112;2023-04-03T09:05:53;8.83;;;4.50;;
6809;SDS011;3443;48.812;9.112;2023-04-03T09:08:40;3.03;;;2.38;;
6809;SDS011;3443;48.812;9.112;2023-04-03T09:11:55;2.15;;;2.05;;
6809;SDS011;3443;48.812;9.112;2023-04-03T09:14:21;11.88;;;7.50;;
6809;SDS011;3443;48.812;9.112;2023-04-03T09:19:57;8.00;;;3.90;;
6809;SDS011;3443;48.812;9.112;2023-04-03T09:22:44;3.83;;;2.67;;
6809;SDS011;3443;48.812;9.112;2023-04-03T09:25:31;7.55;;;3.00;;
6809;SDS011;3443;48.812;9.112;2023-04-03T09:28:00;1.98;;;1.85;;
6809;SDS011;3443;48.812;9.112;2023-04-03T09:30:34;1.83;;;1.73;;
6809;SDS011;3443;48.812;9.112;2023-04-03T09:33:01;3.33;;;1.30;;
6809;SDS011;3443;48.812;9.112;2023-04-03T09:40:36;4.50;;;2.72;;
6809;SDS011;3443;48.812;9.112;2023-04-03T09:45:54;3.13;;;1.75;;
6809;SDS011;3443;48.812;9.112;2023-04-03T09:48:21;1.48;;;1.38;;
6809;SDS011;3443;48.812;9.112;2023-04-03T09:55:54;2.30;;;2.08;;
6809;SDS011;3443;48.812;9.112;2023-04-03T09:58:26;1.50;;;1.40;;
6809;SDS011;3443;48.812;9.112;2023-04-03T10:00:57;2.30;;;1.50;;
6809;SDS011;3443;48.812;9.112;2023-04-03T10:03:27;2.97;;;1.43;;
6809;SDS011;3443;48.812;9.112;2023-04-03T10:05:57;4.10;;;1.70;;
6809;SDS011;3443;48.812;9.112;2023-04-03T10:08:25;1.83;;;1.33;;
6809;SDS011;3443;48.812;9.112;2023-04-03T10:16:20;1.47;;;1.10;;
6809;SDS011;3443;48.812;9.112;2023-04-03T10:21:42;1.40;;;1.13;;
6809;SDS011;3443;48.812;9.112;2023-04-03T10:24:23;1.33;;;1.15;;
6809;SDS011;3443;48.812;9.112;2023-04-03T10:27:13;1.80;;;1.10;;
6809;SDS011;3443;48.812;9.112;2023-04-03T10:35:39;1.20;;;1.20;;
6809;SDS011;3443;48.812;9.112;2023-04-03T10:38:15;1.58;;;1.00;;
6809;SDS011;3443;48.812;9.112;2023-04-03T10:43:53;1.65;;;1.30;;
6809;SDS011;3443;48.812;9.112;2023-04-03T10:46:37;2.58;;;1.48;;
6809;SDS011;3443;48.812;9.112;2023-04-03T10:51:50;1.47;;;1.17;;
6809;SDS011;3443;48.812;9.112;2023-04-03T10:54:33;1.95;;;1.35;;
6809;SDS011;3443;48.812;9.112;2023-04-03T10:57:05;3.40;;;1.33;;
6809;SDS011;3443;48.812;9.112;2023-04-03T10:59:37;3.45;;;1.48;;
6809;SDS011;3443;48.812;9.112;2023-04-03T11:02:14;1.50;;;1.05;;
6809;SDS011;3443;48.812;9.112;2023-04-03T11:04:58;2.78;;;1.10;;
6809;SDS011;3443;48.812;9.112;2023-04-03T11:07:26;2.83;;;1.30;;
6809;SDS011;3443;48.812;9.112;2023-04-03T11:10:00;1.23;;;1.10;;
6809;SDS011;3443;48.812;9.112;2023-04-03T11:15:15;1.17;;;1.15;;
6809;SDS011;3443;48.812;9.112;2023-04-03T11:17:48;3.70;;;0.88;;
6809;SDS011;3443;48.812;9.112;2023-04-03T11:20:26;2.20;;;1.63;;
6809;SDS011;3443;48.812;9.112;2023-04-03T11:23:02;0.93;;;0.93;;
6809;SDS011;3443;48.812;9.112;2023-04-03T11:25:38;1.80;;;0.90;;
6809;SDS011;3443;48.812;9.112;2023-04-03T11:28:09;3.42;;;1.20;;
6809;SDS011;3443;48.812;9.112;2023-04-03T11:30:54;0.82;;;0.82;;
6809;SDS011;3443;48.812;9.112;2023-04-03T11:33:49;1.52;;;0.90;;
6809;SDS011;3443;48.812;9.112;2023-04-03T11:36:28;1.60;;;0.65;;
6809;SDS011;3443;48.812;9.112;2023-04-03T11:38:57;1.98;;;1.00;;
6809;SDS011;3443;48.812;9.112;2023-04-03T11:41:31;1.20;;;1.20;;
6809;SDS011;3443;48.812;9.112;2023-04-03T11:46:49;3.20;;;0.98;;
6809;SDS011;3443;48.812;9.112;2023-04-03T11:57:45;1.33;;;0.98;;
6809;SDS011;3443;48.812;9.112;2023-04-03T12:16:06;0.95;;;0.90;;
6809;SDS011;3443;48.812;9.112;2023-04-03T12:18:48;2.05;;;1.15;;
6809;SDS011;3443;48.812;9.112;2023-04-03T12:22:04;3.33;;;1.10;;
6809;SDS011;3443;48.812;9.112;2023-04-03T12:29:27;1.33;;;0.80;;
6809;SDS011;3443;48.812;9.112;2023-04-03T12:32:07;2.38;;;1.20;;
6809;SDS011;3443;48.812;9.112;2023-04-03T12:40:26;2.28;;;0.80;;
6809;SDS011;3443;48.812;9.112;2023-04-03T12:48:54;1.30;;;1.10;;
6809;SDS011;3443;48.812;9.112;2023-04-03T12:54:14;1.40;;;0.80;;
6809;SDS011;3443;48.812;9.112;2023-04-03T12:56:46;2.20;;;0.90;;
6809;SDS011;3443;48.812;9.112;2023-04-03T12:59:24;1.85;;;0.90;;
6809;SDS011;3443;48.812;9.112;2023-04-03T13:01:58;2.05;;;1.30;;
6809;SDS011;3443;48.812;9.112;2023-04-03T13:04:24;0.90;;;0.90;;
6809;SDS011;3443;48.812;9.112;2023-04-03T13:06:52;2.55;;;1.15;;
6809;SDS011;3443;48.812;9.112;2023-04-03T13:09:28;1.90;;;0.98;;
6809;SDS011;3443;48.812;9.112;2023-04-03T13:12:11;2.83;;;0.88;;
6809;SDS011;3443;48.812;9.112;2023-04-03T13:14:39;1.98;;;0.80;;
6809;SDS011;3443;48.812;9.112;2023-04-03T13:19:37;0.82;;;0.82;;
6809;SDS011;3443;48.812;9.112;2023-04-03T13:22:06;0.73;;;0.73;;
6809;SDS011;3443;48.812;9.112;2023-04-03T13:24:50;1.05;;;0.80;;
6809;SDS011;3443;48.812;9.112;2023-04-03T13:27:19;1.85;;;0.90;;
6809;SDS011;3443;48.812;9.112;2023-04-03T13:29:49;0.88;;;0.88;;
6809;SDS011;3443;48.812;9.112;2023-04-03T13:32:18;1.77;;;1.10;;
6809;SDS011;3443;48.812;9.112;2023-04-03T13:34:46;2.55;;;0.90;;
6809;SDS011;3443;48.812;9.112;2023-04-03T13:37:25;1.58;;;1.20;;
6809;SDS011;3443;48.812;9.112;2023-04-03T13:42:34;0.85;;;0.85;;
6809;SDS011;3443;48.812;9.112;2023-04-03T13:45:20;1.73;;;0.90;;
6809;SDS011;3443;48.812;9.112;2023-04-03T13:47:49;0.80;;;0.70;;
6809;SDS011;3443;48.812;9.112;2023-04-03T13:52:49;1.52;;;0.90;;
6809;SDS011;3443;48.812;9.112;2023-04-03T13:55:31;2.58;;;1.10;;
6809;SDS011;3443;48.812;9.112;2023-04-03T14:00:51;0.93;;;0.93;;
6809;SDS011;3443;48.812;9.112;2023-04-03T14:06:08;1.73;;;0.82;;
6809;SDS011;3443;48.812;9.112;2023-04-03T14:08:36;1.08;;;1.08;;
6809;SDS011;3443;48.812;9.112;2023-04-03T14:11:02;1.63;;;0.93;;
6809;SDS011;3443;48.812;9.112;2023-04-03T14:13:31;0.98;;;0.98;;
6809;SDS011;3443;48.812;9.112;2023-04-03T14:15:57;2.92;;;1.10;;
6809;SDS011;3443;48.812;9.112;2023-04-03T14:18:22;0.75;;;0.70;;
6809;SDS011;3443;48.812;9.112;2023-04-03T14:20:49;1.00;;;0.95;;
6809;SDS011;3443;48.812;9.112;2023-04-03T14:23:15;1.73;;;1.48;;
6809;SDS011;3443;48.812;9.112;2023-04-03T14:25:41;1.75;;;1.10;;
6809;SDS011;3443;48.812;9.112;2023-04-03T14:28:16;1.38;;;1.13;;
6809;SDS011;3443;48.812;9.112;2023-04-03T14:30:44;0.82;;;0.82;;
6809;SDS011;3443;48.812;9.112;2023-04-03T14:33:13;1.35;;;1.10;;
6809;SDS011;3443;48.812;9.112;2023-04-03T14:35:40;1.23;;;0.90;;
6809;SDS011;3443;48.812;9.112;2023-04-03T14:38:14;1.13;;;0.98;;
6809;SDS011;3443;48.812;9.112;2023-04-03T14:40:47;4.43;;;0.60;;
6809;SDS011;3443;48.812;9.112;2023-04-03T14:43:12;0.90;;;0.90;;
6809;SDS011;3443;48.812;9.112;2023-04-03T14:45:38;1.80;;;1.35;;
6809;SDS011;3443;48.812;9.112;2023-04-03T14:48:04;1.15;;;1.05;;
6809;SDS011;3443;48.812;9.112;2023-04-03T14:50:34;0.98;;;0.73;;
6809;SDS011;3443;48.812;9.112;2023-04-03T14:53:00;1.27;;;0.73;;
6809;SDS011;3443;48.812;9.112;2023-04-03T14:55:26;0.90;;;0.90;;
6809;SDS011;3443;48.812;9.112;2023-04-03T14:57:52;0.90;;;0.90;;
6809;SDS011;3443;48.812;9.112;2023-04-03T15:00:19;1.23;;;1.10;;
6809;SDS011;3443;48.812;9.112;2023-04-03T15:02:46;1.50;;;1.40;;
6809;SDS011;3443;48.812;9.112;2023-04-03T15:05:13;1.00;;;1.00;;
6809;SDS011;3443;48.812;9.112;2023-04-03T15:07:40;0.80;;;0.80;;
6809;SDS011;3443;48.812;9.112;2023-04-03T15:12:39;4.53;;;0.90;;
6809;SDS011;3443;48.812;9.112;2023-04-03T15:15:05;1.33;;;1.08;;
6809;SDS011;3443;48.812;9.112;2023-04-03T15:17:31;1.17;;;1.10;;
6809;SDS011;3443;48.812;9.112;2023-04-03T15:19:57;0.80;;;0.80;;
6809;SDS011;3443;48.812;9.112;2023-04-03T15:22:23;1.92;;;0.90;;
6809;SDS011;3443;48.812;9.112;2023-04-03T15:24:49;2.13;;;0.90;;
6809;SDS011;3443;48.812;9.112;2023-04-03T15:27:14;1.10;;;1.10;;
6809;SDS011;3443;48.812;9.112;2023-04-03T15:29:41;2.15;;;1.20;;
6809;SDS011;3443;48.812;9.112;2023-04-03T15:32:07;2.70;;;1.00;;
6809;SDS011;3443;48.812;9.112;2023-04-03T15:34:33;5.63;;;2.30;;
6809;SDS011;3443;48.812;9.112;2023-04-03T15:37:00;3.17;;;1.25;;
6809;SDS011;3443;48.812;9.112;2023-04-03T15:39:26;4.72;;;1.95;;
6809;SDS011;3443;48.812;9.112;2023-04-03T15:41:51;1.90;;;1.67;;
6809;SDS011;3443;48.812;9.112;2023-04-03T15:44:18;7.68;;;2.50;;
6809;SDS011;3443;48.812;9.112;2023-04-03T15:46:45;1.48;;;1.20;;
6809;SDS011;3443;48.812;9.112;2023-04-03T15:49:12;2.20;;;0.90;;
6809;SDS011;3443;48.812;9.112;2023-04-03T15:51:38;4.70;;;1.40;;
6809;SDS011;3443;48.812;9.112;2023-04-03T15:54:03;0.73;;;0.73;;
6809;SDS011;3443;48.812;9.112;2023-04-03T15:56:29;1.70;;;1.00;;
6809;SDS011;3443;48.812;9.112;2023-04-03T15:58:55;0.90;;;0.90;;
6809;SDS011;3443;48.812;9.112;2023-04-03T16:01:20;0.90;;;0.90;;
6809;SDS011;3443;48.812;9.112;2023-04-03T16:03:46;0.98;;;0.90;;
6809;SDS011;3443;48.812;9.112;2023-04-03T16:06:18;4.60;;;1.30;;
6809;SDS011;3443;48.812;9.112;2023-04-03T16:08:44;0.80;;;0.80;;
6809;SDS011;3443;48.812;9.112;2023-04-03T16:11:11;0.80;;;0.80;;
6809;SDS011;3443;48.812;9.112;2023-04-03T16:13:36;0.98;;;0.90;;
6809;SDS011;3443;48.812;9.112;2023-04-03T16:16:02;1.38;;;1.27;;
6809;SDS011;3443;48.812;9.112;2023-04-03T16:18:28;3.53;;;1.40;;
6809;SDS011;3443;48.812;9.112;2023-04-03T16:20:54;1.00;;;0.90;;
6809;SDS011;3443;48.812;9.112;2023-04-03T16:23:20;2.17;;;1.20;;
6809;SDS011;3443;48.812;9.112;2023-04-03T16:25:47;1.40;;;1.17;;
6809;SDS011;3443;48.812;9.112;2023-04-03T16:28:13;1.20;;;1.05;;
6809;SDS011;3443;48.812;9.112;2023-04-03T16:30:40;2.05;;;1.10;;
6809;SDS011;3443;48.812;9.112;2023-04-03T16:33:06;1.58;;;1.48;;
6809;SDS011;3443;48.812;9.112;2023-04-03T16:35:31;1.35;;;1.25;;
6809;SDS011;3443;48.812;9.112;2023-04-03T16:37:57;0.88;;;0.82;;
6809;SDS011;3443;48.812;9.112;2023-04-03T16:40:23;68.32;;;28.20;;
6809;SDS011;3443;48.812;9.112;2023-04-03T16:42:48;332.13;;;83.15;;
6809;SDS011;3443;48.812;9.112;2023-04-03T16:45:14;165.45;;;40.30;;
6809;SDS011;3443;48.812;9.112;2023-04-03T16:47:40;110.25;;;27.33;;
6809;SDS011;3443;48.812;9.112;2023-04-03T16:50:05;73.38;;;18.58;;
6809;SDS011;3443;48.812;9.112;2023-04-03T16:52:31;117.78;;;28.00;;
6809;SDS011;3443;48.812;9.112;2023-04-03T16:54:57;91.90;;;24.33;;
6809;SDS011;3443;48.812;9.112;2023-04-03T16:57:23;167.60;;;40.70;;
6809;SDS011;3443;48.812;9.112;2023-04-03T16:59:50;18.58;;;7.45;;
6809;SDS011;3443;48.812;9.112;2023-04-03T17:02:16;2.97;;;1.42;;
6809;SDS011;3443;48.812;9.112;2023-04-03T17:04:42;1.13;;;1.02;;
6809;SDS011;3443;48.812;9.112;2023-04-03T17:07:09;1.10;;;1.02;;
6809;SDS011;3443;48.812;9.112;2023-04-03T17:09:34;1.23;;;1.20;;
6809;SDS011;3443;48.812;9.112;2023-04-03T17:12:00;1.90;;;1.23;;
6809;SDS011;3443;48.812;9.112;2023-04-03T17:14:26;1.75;;;1.23;;
6809;SDS011;3443;48.812;9.112;2023-04-03T17:16:51;1.10;;;1.10;;